sensor_id;sensor_type;location;lat;lon;timestamp;P1;durP1;ratioP1;P2;durP2;ratioP2
25609;SDS011;13479;49.044;8.716;2023-07-09T04:01:13;12.30;;;4.90;;
25609;SDS011;13479;49.044;8.716;2023-07-09T04:03:41;10.27;;;5.13;;
25609;SDS011;13479;49.044;8.716;2023-07-09T04:06:06;10.35;;;4.78;;
25609;SDS011;13479;49.044;8.716;2023-07-09T04:08:31;10.32;;;4.80;;
25609;SDS011;13479;49.044;8.716;2023-07-09T04:11:01;8.10;;;4.75;;
25609;SDS011;13479;49.044;8.716;2023-07-09T04:13:27;8.20;;;4.38;;
25609;SDS011;13479;49.044;8.716;2023-07-09T04:15:53;9.25;;;4.65;;
25609;SDS011;13479;49.044;8.716;2023-07-09T04:18:18;13.68;;;4.63;;
25609;SDS011;13479;49.044;8.716;2023-07-09T04:20:47;10.80;;;4.95;;
25609;SDS011;13479;49.044;8.716;2023-07-09T04:23:14;11.15;;;4.88;;
25609;SDS011;13479;49.044;8.716;2023-07-09T04:25:39;9.60;;;5.22;;
25609;SDS011;13479;49.044;8.716;2023-07-09T04:28:05;9.35;;;4.60;;
25609;SDS011;13479;49.044;8.716;2023-07-09T04:30:31;10.07;;;4.47;;
25609;SDS011;13479;49.044;8.716;2023-07-09T04:32:56;9.02;;;4.90;;
25609;SDS011;13479;49.044;8.716;2023-07-09T04:35:22;8.07;;;4.85;;
25609;SDS011;13479;49.044;8.716;2023-07-09T04:37:47;6.72;;;4.22;;
25609;SDS011;13479;49.044;8.716;2023-07-09T04:40:13;9.43;;;4.28;;
25609;SDS011;13479;49.044;8.716;2023-07-09T04:42:38;7.72;;;4.68;;
25609;SDS011;13479;49.044;8.716;2023-07-09T04:45:05;9.13;;;4.57;;
25609;SDS011;13479;49.044;8.716;2023-07-09T04:47:31;13.13;;;4.75;;
25609;SDS011;13479;49.044;8.716;2023-07-09T04:49:56;8.93;;;4.93;;
25609;SDS011;13479;49.044;8.716;2023-07-09T04:52:21;9.68;;;5.07;;
25609;SDS011;13479;49.044;8.716;2023-07-09T04:54:47;6.80;;;4.40;;
25609;SDS011;13479;49.044;8.716;2023-07-09T04:57:12;10.02;;;5.10;;
25609;SDS011;13479;49.044;8.716;2023-07-09T04:59:37;8.68;;;4.50;;
25609;SDS011;13479;49.044;8.716;2023-07-09T05:02:03;10.25;;;4.57;;
25609;SDS011;13479;49.044;8.716;2023-07-09T05:04:29;9.05;;;4.63;;
25609;SDS011;13479;49.044;8.716;2023-07-09T05:06:54;10.02;;;5.20;;
25609;SDS011;13479;49.044;8.716;2023-07-09T05:09:20;9.32;;;4.80;;
25609;SDS011;13479;49.044;8.716;2023-07-09T05:11:45;9.45;;;4.30;;
25609;SDS011;13479;49.044;8.716;2023-07-09T05:14:11;12.10;;;4.78;;
25609;SDS011;13479;49.044;8.716;2023-07-09T05:16:36;9.90;;;4.90;;
25609;SDS011;13479;49.044;8.716;2023-07-09T05:19:01;9.80;;;4.38;;
25609;SDS011;13479;49.044;8.716;2023-07-09T05:21:28;9.95;;;4.32;;
25609;SDS011;13479;49.044;8.716;2023-07-09T05:23:53;12.13;;;5.25;;
25609;SDS011;13479;49.044;8.716;2023-07-09T05:26:18;13.77;;;4.88;;
25609;SDS011;13479;49.044;8.716;2023-07-09T05:28:43;9.75;;;4.03;;
25609;SDS011;13479;49.044;8.716;2023-07-09T05:31:09;8.00;;;4.25;;
25609;SDS011;13479;49.044;8.716;2023-07-09T05:33:34;6.90;;;3.88;;
25609;SDS011;13479;49.044;8.716;2023-07-09T05:35:59;6.32;;;4.15;;
25609;SDS011;13479;49.044;8.716;2023-07-09T05:38:25;6.00;;;4.10;;
25609;SDS011;13479;49.044;8.716;2023-07-09T05:40:58;7.30;;;4.22;;
25609;SDS011;13479;49.044;8.716;2023-07-09T05:43:25;8.35;;;3.80;;
25609;SDS011;13479;49.044;8.716;2023-07-09T05:45:51;9.20;;;4.18;;
25609;SDS011;13479;49.044;8.716;2023-07-09T05:48:16;8.95;;;3.88;;
25609;SDS011;13479;49.044;8.716;2023-07-09T05:50:41;7.90;;;3.80;;
25609;SDS011;13479;49.044;8.716;2023-07-09T05:53:06;8.88;;;4.22;;
25609;SDS011;13479;49.044;8.716;2023-07-09T05:55:32;9.95;;;4.10;;
25609;SDS011;13479;49.044;8.716;2023-07-09T05:57:57;6.80;;;3.80;;
25609;SDS011;13479;49.044;8.716;2023-07-09T06:00:22;6.45;;;3.85;;
25609;SDS011;13479;49.044;8.716;2023-07-09T06:02:47;6.95;;;3.42;;
25609;SDS011;13479;49.044;8.716;2023-07-09T06:05:13;7.13;;;4.00;;
25609;SDS011;13479;49.044;8.716;2023-07-09T06:07:39;7.38;;;4.00;;
25609;SDS011;13479;49.044;8.716;2023-07-09T06:10:05;5.70;;;3.38;;
25609;SDS011;13479;49.044;8.716;2023-07-09T06:12:32;6.55;;;3.90;;
25609;SDS011;13479;49.044;8.716;2023-07-09T06:14:57;9.52;;;3.75;;
25609;SDS011;13479;49.044;8.716;2023-07-09T06:17:23;6.53;;;3.80;;
25609;SDS011;13479;49.044;8.716;2023-07-09T06:19:48;7.82;;;3.90;;
25609;SDS011;13479;49.044;8.716;2023-07-09T06:22:13;6.88;;;3.42;;
25609;SDS011;13479;49.044;8.716;2023-07-09T06:24:38;9.00;;;3.70;;
25609;SDS011;13479;49.044;8.716;2023-07-09T06:27:04;5.60;;;3.58;;
25609;SDS011;13479;49.044;8.716;2023-07-09T06:29:29;5.10;;;3.30;;
25609;SDS011;13479;49.044;8.716;2023-07-09T06:31:55;8.98;;;3.50;;
25609;SDS011;13479;49.044;8.716;2023-07-09T06:34:20;6.30;;;3.00;;
25609;SDS011;13479;49.044;8.716;2023-07-09T06:36:45;7.38;;;3.63;;
25609;SDS011;13479;49.044;8.716;2023-07-09T06:39:10;5.35;;;3.50;;
25609;SDS011;13479;49.044;8.716;2023-07-09T06:41:36;5.40;;;3.15;;
25609;SDS011;13479;49.044;8.716;2023-07-09T06:44:07;8.30;;;3.67;;
25609;SDS011;13479;49.044;8.716;2023-07-09T06:46:34;5.50;;;3.20;;
25609;SDS011;13479;49.044;8.716;2023-07-09T06:49:00;5.10;;;3.45;;
25609;SDS011;13479;49.044;8.716;2023-07-09T06:51:26;4.15;;;2.88;;
25609;SDS011;13479;49.044;8.716;2023-07-09T06:53:51;6.03;;;3.53;;
25609;SDS011;13479;49.044;8.716;2023-07-09T06:56:16;4.88;;;3.42;;
25609;SDS011;13479;49.044;8.716;2023-07-09T06:58:42;5.95;;;3.38;;
25609;SDS011;13479;49.044;8.716;2023-07-09T07:01:09;8.45;;;3.50;;
25609;SDS011;13479;49.044;8.716;2023-07-09T07:03:36;5.93;;;3.40;;
25609;SDS011;13479;49.044;8.716;2023-07-09T07:06:02;6.72;;;3.33;;
25609;SDS011;13479;49.044;8.716;2023-07-09T07:08:27;7.13;;;3.40;;
25609;SDS011;13479;49.044;8.716;2023-07-09T07:10:54;7.88;;;3.40;;
25609;SDS011;13479;49.044;8.716;2023-07-09T07:13:27;5.47;;;3.40;;
25609;SDS011;13479;49.044;8.716;2023-07-09T07:15:56;6.45;;;3.53;;
25609;SDS011;13479;49.044;8.716;2023-07-09T07:18:21;4.20;;;3.28;;
25609;SDS011;13479;49.044;8.716;2023-07-09T07:20:47;5.68;;;3.20;;
25609;SDS011;13479;49.044;8.716;2023-07-09T07:23:12;5.90;;;3.30;;
25609;SDS011;13479;49.044;8.716;2023-07-09T07:25:38;8.18;;;3.55;;
25609;SDS011;13479;49.044;8.716;2023-07-09T07:28:03;6.03;;;3.20;;
25609;SDS011;13479;49.044;8.716;2023-07-09T07:30:28;5.60;;;2.90;;
25609;SDS011;13479;49.044;8.716;2023-07-09T07:32:53;6.28;;;3.20;;
25609;SDS011;13479;49.044;8.716;2023-07-09T07:35:19;4.85;;;3.22;;
25609;SDS011;13479;49.044;8.716;2023-07-09T07:37:44;7.32;;;3.42;;
25609;SDS011;13479;49.044;8.716;2023-07-09T07:40:10;5.00;;;3.40;;
25609;SDS011;13479;49.044;8.716;2023-07-09T07:42:35;5.00;;;3.00;;
25609;SDS011;13479;49.044;8.716;2023-07-09T07:45:01;5.50;;;2.85;;
25609;SDS011;13479;49.044;8.716;2023-07-09T07:47:26;4.60;;;3.00;;
25609;SDS011;13479;49.044;8.716;2023-07-09T07:49:52;7.10;;;3.45;;
25609;SDS011;13479;49.044;8.716;2023-07-09T07:52:18;4.53;;;2.97;;
25609;SDS011;13479;49.044;8.716;2023-07-09T07:54:44;8.50;;;3.20;;
25609;SDS011;13479;49.044;8.716;2023-07-09T07:57:09;5.68;;;3.03;;
25609;SDS011;13479;49.044;8.716;2023-07-09T07:59:36;6.45;;;3.35;;
25609;SDS011;13479;49.044;8.716;2023-07-09T08:02:02;6.80;;;3.10;;
25609;SDS011;13479;49.044;8.716;2023-07-09T08:04:28;4.63;;;3.00;;
25609;SDS011;13479;49.044;8.716;2023-07-09T08:06:53;6.28;;;3.20;;
25609;SDS011;13479;49.044;8.716;2023-07-09T08:09:19;5.40;;;2.90;;
25609;SDS011;13479;49.044;8.716;2023-07-09T08:11:44;5.22;;;2.75;;
25609;SDS011;13479;49.044;8.716;2023-07-09T08:14:10;6.50;;;3.55;;
25609;SDS011;13479;49.044;8.716;2023-07-09T08:16:35;6.80;;;2.85;;
25609;SDS011;13479;49.044;8.716;2023-07-09T08:19:01;4.65;;;2.80;;
25609;SDS011;13479;49.044;8.716;2023-07-09T08:21:26;4.30;;;3.10;;
25609;SDS011;13479;49.044;8.716;2023-07-09T08:23:51;7.70;;;3.00;;
25609;SDS011;13479;49.044;8.716;2023-07-09T08:26:16;4.60;;;2.77;;
25609;SDS011;13479;49.044;8.716;2023-07-09T08:28:42;5.90;;;2.87;;
25609;SDS011;13479;49.044;8.716;2023-07-09T08:31:07;5.10;;;2.87;;
25609;SDS011;13479;49.044;8.716;2023-07-09T08:33:33;6.78;;;2.95;;
25609;SDS011;13479;49.044;8.716;2023-07-09T08:35:59;5.32;;;2.75;;
25609;SDS011;13479;49.044;8.716;2023-07-09T08:38:24;3.05;;;2.63;;
25609;SDS011;13479;49.044;8.716;2023-07-09T08:41:00;4.57;;;2.80;;
25609;SDS011;13479;49.044;8.716;2023-07-09T08:43:51;5.75;;;2.70;;
25609;SDS011;13479;49.044;8.716;2023-07-09T08:48:49;4.83;;;2.83;;
25609;SDS011;13479;49.044;8.716;2023-07-09T08:51:25;3.92;;;2.78;;
25609;SDS011;13479;49.044;8.716;2023-07-09T08:54:01;5.65;;;2.90;;
25609;SDS011;13479;49.044;8.716;2023-07-09T08:56:27;5.38;;;3.10;;
25609;SDS011;13479;49.044;8.716;2023-07-09T08:58:56;5.30;;;3.25;;
25609;SDS011;13479;49.044;8.716;2023-07-09T09:01:34;5.13;;;2.88;;
25609;SDS011;13479;49.044;8.716;2023-07-09T09:04:15;6.72;;;3.00;;
25609;SDS011;13479;49.044;8.716;2023-07-09T09:07:00;4.70;;;3.20;;
25609;SDS011;13479;49.044;8.716;2023-07-09T09:09:39;7.18;;;3.30;;
25609;SDS011;13479;49.044;8.716;2023-07-09T09:12:15;4.28;;;3.03;;
25609;SDS011;13479;49.044;8.716;2023-07-09T09:14:46;7.78;;;2.50;;
25609;SDS011;13479;49.044;8.716;2023-07-09T09:17:21;6.22;;;3.15;;
25609;SDS011;13479;49.044;8.716;2023-07-09T09:19:55;5.53;;;3.10;;
25609;SDS011;13479;49.044;8.716;2023-07-09T09:22:24;6.55;;;3.33;;
25609;SDS011;13479;49.044;8.716;2023-07-09T09:24:57;5.53;;;3.00;;
25609;SDS011;13479;49.044;8.716;2023-07-09T09:27:28;6.68;;;3.42;;
25609;SDS011;13479;49.044;8.716;2023-07-09T09:29:54;10.35;;;3.40;;
25609;SDS011;13479;49.044;8.716;2023-07-09T09:32:26;7.07;;;3.25;;
25609;SDS011;13479;49.044;8.716;2023-07-09T09:34:53;5.45;;;2.92;;
25609;SDS011;13479;49.044;8.716;2023-07-09T09:37:26;7.03;;;3.00;;
25609;SDS011;13479;49.044;8.716;2023-07-09T09:39:53;6.35;;;2.80;;
25609;SDS011;13479;49.044;8.716;2023-07-09T09:42:19;3.85;;;2.58;;
25609;SDS011;13479;49.044;8.716;2023-07-09T09:44:44;4.43;;;2.90;;
25609;SDS011;13479;49.044;8.716;2023-07-09T09:47:11;5.13;;;2.92;;
25609;SDS011;13479;49.044;8.716;2023-07-09T09:49:43;4.57;;;2.80;;
25609;SDS011;13479;49.044;8.716;2023-07-09T09:52:15;8.02;;;3.03;;
25609;SDS011;13479;49.044;8.716;2023-07-09T09:55:03;5.88;;;2.53;;
25609;SDS011;13479;49.044;8.716;2023-07-09T09:57:46;6.70;;;3.17;;
25609;SDS011;13479;49.044;8.716;2023-07-09T10:00:14;6.57;;;3.00;;
25609;SDS011;13479;49.044;8.716;2023-07-09T10:02:42;13.63;;;3.38;;
25609;SDS011;13479;49.044;8.716;2023-07-09T10:05:16;5.57;;;3.00;;
25609;SDS011;13479;49.044;8.716;2023-07-09T10:07:56;4.10;;;2.45;;
25609;SDS011;13479;49.044;8.716;2023-07-09T10:10:28;4.30;;;2.30;;
25609;SDS011;13479;49.044;8.716;2023-07-09T10:15:59;3.97;;;2.70;;
25609;SDS011;13479;49.044;8.716;2023-07-09T10:26:36;4.20;;;2.30;;
25609;SDS011;13479;49.044;8.716;2023-07-09T10:29:36;5.78;;;2.40;;
25609;SDS011;13479;49.044;8.716;2023-07-09T10:37:21;2.90;;;2.23;;
25609;SDS011;13479;49.044;8.716;2023-07-09T10:39:59;5.18;;;2.58;;
25609;SDS011;13479;49.044;8.716;2023-07-09T10:42:40;3.95;;;2.20;;
25609;SDS011;13479;49.044;8.716;2023-07-09T10:45:28;4.72;;;2.30;;
25609;SDS011;13479;49.044;8.716;2023-07-09T10:48:07;5.10;;;2.40;;
25609;SDS011;13479;49.044;8.716;2023-07-09T10:50:39;5.50;;;2.53;;
25609;SDS011;13479;49.044;8.716;2023-07-09T10:53:24;6.75;;;2.85;;
25609;SDS011;13479;49.044;8.716;2023-07-09T10:56:00;4.93;;;2.53;;
25609;SDS011;13479;49.044;8.716;2023-07-09T11:01:00;3.50;;;2.35;;
25609;SDS011;13479;49.044;8.716;2023-07-09T11:03:44;5.68;;;3.00;;
25609;SDS011;13479;49.044;8.716;2023-07-09T11:06:34;3.78;;;2.33;;
25609;SDS011;13479;49.044;8.716;2023-07-09T11:09:04;6.35;;;2.90;;
25609;SDS011;13479;49.044;8.716;2023-07-09T11:11:45;6.07;;;2.80;;
25609;SDS011;13479;49.044;8.716;2023-07-09T11:14:29;5.30;;;3.00;;
25609;SDS011;13479;49.044;8.716;2023-07-09T11:16:58;5.55;;;2.70;;
25609;SDS011;13479;49.044;8.716;2023-07-09T11:19:25;4.82;;;2.90;;
25609;SDS011;13479;49.044;8.716;2023-07-09T11:22:05;3.75;;;2.50;;
25609;SDS011;13479;49.044;8.716;2023-07-09T11:24:50;5.07;;;2.53;;
25609;SDS011;13479;49.044;8.716;2023-07-09T11:27:44;6.05;;;2.75;;
25609;SDS011;13479;49.044;8.716;2023-07-09T11:30:21;5.22;;;2.97;;
25609;SDS011;13479;49.044;8.716;2023-07-09T11:32:47;5.97;;;2.50;;
25609;SDS011;13479;49.044;8.716;2023-07-09T11:35:24;3.78;;;2.63;;
25609;SDS011;13479;49.044;8.716;2023-07-09T11:37:51;7.30;;;3.00;;
25609;SDS011;13479;49.044;8.716;2023-07-09T11:40:18;7.13;;;3.00;;
25609;SDS011;13479;49.044;8.716;2023-07-09T11:42:51;9.27;;;2.72;;
25609;SDS011;13479;49.044;8.716;2023-07-09T11:45:33;7.53;;;2.95;;
25609;SDS011;13479;49.044;8.716;2023-07-09T11:50:48;7.93;;;2.47;;
25609;SDS011;13479;49.044;8.716;2023-07-09T11:53:30;8.20;;;2.90;;
25609;SDS011;13479;49.044;8.716;2023-07-09T11:56:03;8.27;;;3.08;;
25609;SDS011;13479;49.044;8.716;2023-07-09T11:58:29;4.43;;;2.85;;
25609;SDS011;13479;49.044;8.716;2023-07-09T12:00:55;6.72;;;2.90;;
25609;SDS011;13479;49.044;8.716;2023-07-09T12:06:12;6.70;;;2.85;;
25609;SDS011;13479;49.044;8.716;2023-07-09T12:08:51;5.70;;;2.80;;
25609;SDS011;13479;49.044;8.716;2023-07-09T12:11:24;9.32;;;2.60;;
25609;SDS011;13479;49.044;8.716;2023-07-09T12:13:54;5.63;;;2.92;;
25609;SDS011;13479;49.044;8.716;2023-07-09T12:16:30;8.38;;;2.70;;
25609;SDS011;13479;49.044;8.716;2023-07-09T12:18:58;5.38;;;2.83;;
25609;SDS011;13479;49.044;8.716;2023-07-09T12:21:23;5.47;;;2.90;;
25609;SDS011;13479;49.044;8.716;2023-07-09T12:23:50;8.43;;;3.08;;
25609;SDS011;13479;49.044;8.716;2023-07-09T12:26:17;6.13;;;2.50;;
25609;SDS011;13479;49.044;8.716;2023-07-09T12:28:48;4.35;;;2.28;;
25609;SDS011;13479;49.044;8.716;2023-07-09T12:31:15;5.35;;;2.72;;
25609;SDS011;13479;49.044;8.716;2023-07-09T12:33:48;8.00;;;3.10;;
25609;SDS011;13479;49.044;8.716;2023-07-09T12:36:14;8.00;;;2.88;;
25609;SDS011;13479;49.044;8.716;2023-07-09T12:38:43;4.95;;;2.65;;
25609;SDS011;13479;49.044;8.716;2023-07-09T12:41:22;5.78;;;2.67;;
25609;SDS011;13479;49.044;8.716;2023-07-09T12:43:50;7.10;;;2.88;;
25609;SDS011;13479;49.044;8.716;2023-07-09T12:46:18;11.15;;;3.13;;
25609;SDS011;13479;49.044;8.716;2023-07-09T12:48:45;5.70;;;2.83;;
25609;SDS011;13479;49.044;8.716;2023-07-09T12:51:13;6.28;;;2.47;;
25609;SDS011;13479;49.044;8.716;2023-07-09T12:53:41;6.57;;;2.97;;
25609;SDS011;13479;49.044;8.716;2023-07-09T12:56:09;6.18;;;2.90;;
25609;SDS011;13479;49.044;8.716;2023-07-09T12:58:38;6.20;;;2.88;;
25609;SDS011;13479;49.044;8.716;2023-07-09T13:01:21;6.43;;;2.85;;
25609;SDS011;13479;49.044;8.716;2023-07-09T13:03:54;5.30;;;2.60;;
25609;SDS011;13479;49.044;8.716;2023-07-09T13:06:25;6.53;;;2.63;;
25609;SDS011;13479;49.044;8.716;2023-07-09T13:08:57;6.03;;;2.90;;
25609;SDS011;13479;49.044;8.716;2023-07-09T13:11:24;7.13;;;3.20;;
25609;SDS011;13479;49.044;8.716;2023-07-09T13:13:58;5.35;;;2.78;;
25609;SDS011;13479;49.044;8.716;2023-07-09T13:16:26;5.10;;;2.38;;
25609;SDS011;13479;49.044;8.716;2023-07-09T13:18:52;8.57;;;2.78;;
25609;SDS011;13479;49.044;8.716;2023-07-09T13:21:18;5.50;;;2.70;;
25609;SDS011;13479;49.044;8.716;2023-07-09T13:23:44;4.95;;;3.08;;
25609;SDS011;13479;49.044;8.716;2023-07-09T13:26:11;6.00;;;2.72;;
25609;SDS011;13479;49.044;8.716;2023-07-09T13:28:36;7.93;;;2.80;;
25609;SDS011;13479;49.044;8.716;2023-07-09T13:31:15;7.53;;;3.00;;
25609;SDS011;13479;49.044;8.716;2023-07-09T13:33:42;6.97;;;2.67;;
25609;SDS011;13479;49.044;8.716;2023-07-09T13:36:08;7.30;;;3.13;;
25609;SDS011;13479;49.044;8.716;2023-07-09T13:38:34;8.55;;;3.60;;
25609;SDS011;13479;49.044;8.716;2023-07-09T13:41:01;6.10;;;3.10;;
25609;SDS011;13479;49.044;8.716;2023-07-09T13:43:35;7.43;;;3.65;;
25609;SDS011;13479;49.044;8.716;2023-07-09T13:46:02;5.72;;;2.90;;
25609;SDS011;13479;49.044;8.716;2023-07-09T13:48:31;6.97;;;3.40;;
25609;SDS011;13479;49.044;8.716;2023-07-09T13:50:58;7.68;;;3.30;;
25609;SDS011;13479;49.044;8.716;2023-07-09T13:53:25;6.93;;;3.20;;
25609;SDS011;13479;49.044;8.716;2023-07-09T13:55:53;5.63;;;2.88;;
25609;SDS011;13479;49.044;8.716;2023-07-09T13:58:21;8.27;;;2.80;;
25609;SDS011;13479;49.044;8.716;2023-07-09T14:00:49;5.60;;;2.85;;
25609;SDS011;13479;49.044;8.716;2023-07-09T14:03:20;7.40;;;3.15;;
25609;SDS011;13479;49.044;8.716;2023-07-09T14:05:48;6.85;;;3.40;;
25609;SDS011;13479;49.044;8.716;2023-07-09T14:08:14;9.35;;;3.25;;
25609;SDS011;13479;49.044;8.716;2023-07-09T14:10:40;7.35;;;3.08;;
25609;SDS011;13479;49.044;8.716;2023-07-09T14:13:05;5.95;;;3.00;;
25609;SDS011;13479;49.044;8.716;2023-07-09T14:15:38;7.25;;;3.10;;
25609;SDS011;13479;49.044;8.716;2023-07-09T14:18:04;7.88;;;3.00;;
25609;SDS011;13479;49.044;8.716;2023-07-09T14:20:30;5.38;;;2.72;;
25609;SDS011;13479;49.044;8.716;2023-07-09T14:22:55;8.63;;;3.03;;
25609;SDS011;13479;49.044;8.716;2023-07-09T14:25:23;4.45;;;2.53;;
25609;SDS011;13479;49.044;8.716;2023-07-09T14:27:50;6.55;;;2.72;;
25609;SDS011;13479;49.044;8.716;2023-07-09T14:30:17;6.57;;;3.10;;
25609;SDS011;13479;49.044;8.716;2023-07-09T14:32:45;5.28;;;2.88;;
25609;SDS011;13479;49.044;8.716;2023-07-09T14:35:13;4.97;;;2.88;;
25609;SDS011;13479;49.044;8.716;2023-07-09T14:37:39;8.23;;;2.70;;
25609;SDS011;13479;49.044;8.716;2023-07-09T14:40:05;5.05;;;2.75;;
25609;SDS011;13479;49.044;8.716;2023-07-09T14:42:31;6.43;;;2.70;;
25609;SDS011;13479;49.044;8.716;2023-07-09T14:44:56;5.13;;;2.60;;
25609;SDS011;13479;49.044;8.716;2023-07-09T14:47:22;5.65;;;2.83;;
25609;SDS011;13479;49.044;8.716;2023-07-09T14:49:47;11.30;;;2.80;;
25609;SDS011;13479;49.044;8.716;2023-07-09T14:52:21;6.38;;;2.90;;
25609;SDS011;13479;49.044;8.716;2023-07-09T14:54:47;6.80;;;2.88;;
25609;SDS011;13479;49.044;8.716;2023-07-09T14:57:19;7.80;;;3.42;;
25609;SDS011;13479;49.044;8.716;2023-07-09T14:59:48;7.45;;;3.22;;
25609;SDS011;13479;49.044;8.716;2023-07-09T15:05:05;7.95;;;2.90;;
25609;SDS011;13479;49.044;8.716;2023-07-09T15:07:36;7.13;;;2.80;;
25609;SDS011;13479;49.044;8.716;2023-07-09T15:10:01;8.07;;;3.08;;
25609;SDS011;13479;49.044;8.716;2023-07-09T15:12:30;6.88;;;3.22;;
25609;SDS011;13479;49.044;8.716;2023-07-09T15:15:03;7.22;;;3.25;;
25609;SDS011;13479;49.044;8.716;2023-07-09T15:17:37;4.13;;;2.80;;
25609;SDS011;13479;49.044;8.716;2023-07-09T15:20:03;6.95;;;3.05;;
25609;SDS011;13479;49.044;8.716;2023-07-09T15:22:33;8.80;;;3.20;;
25609;SDS011;13479;49.044;8.716;2023-07-09T15:25:00;8.35;;;3.03;;
25609;SDS011;13479;49.044;8.716;2023-07-09T15:27:25;6.05;;;3.13;;
25609;SDS011;13479;49.044;8.716;2023-07-09T15:29:51;7.22;;;3.10;;
25609;SDS011;13479;49.044;8.716;2023-07-09T15:32:16;7.03;;;3.13;;
25609;SDS011;13479;49.044;8.716;2023-07-09T15:34:41;5.78;;;2.60;;
25609;SDS011;13479;49.044;8.716;2023-07-09T15:37:15;6.40;;;3.40;;
25609;SDS011;13479;49.044;8.716;2023-07-09T15:39:41;6.30;;;3.10;;
25609;SDS011;13479;49.044;8.716;2023-07-09T15:42:13;9.70;;;3.40;;
25609;SDS011;13479;49.044;8.716;2023-07-09T15:44:39;5.95;;;2.90;;
25609;SDS011;13479;49.044;8.716;2023-07-09T15:47:05;7.47;;;3.15;;
25609;SDS011;13479;49.044;8.716;2023-07-09T15:49:31;5.55;;;3.08;;
25609;SDS011;13479;49.044;8.716;2023-07-09T15:51:56;10.50;;;3.40;;
25609;SDS011;13479;49.044;8.716;2023-07-09T15:54:23;7.75;;;2.65;;
25609;SDS011;13479;49.044;8.716;2023-07-09T15:56:49;5.03;;;2.92;;
25609;SDS011;13479;49.044;8.716;2023-07-09T15:59:21;6.93;;;3.42;;
25609;SDS011;13479;49.044;8.716;2023-07-09T16:01:56;6.35;;;2.97;;
25609;SDS011;13479;49.044;8.716;2023-07-09T16:04:22;5.25;;;3.00;;
25609;SDS011;13479;49.044;8.716;2023-07-09T16:06:48;5.95;;;3.17;;
25609;SDS011;13479;49.044;8.716;2023-07-09T16:09:14;6.55;;;3.03;;
25609;SDS011;13479;49.044;8.716;2023-07-09T16:11:57;5.13;;;2.78;;
25609;SDS011;13479;49.044;8.716;2023-07-09T16:14:24;6.18;;;2.78;;
25609;SDS011;13479;49.044;8.716;2023-07-09T16:16:52;8.80;;;3.25;;
25609;SDS011;13479;49.044;8.716;2023-07-09T16:19:20;10.35;;;2.90;;
25609;SDS011;13479;49.044;8.716;2023-07-09T16:21:47;6.78;;;2.78;;
25609;SDS011;13479;49.044;8.716;2023-07-09T16:24:19;8.20;;;2.97;;
25609;SDS011;13479;49.044;8.716;2023-07-09T16:26:49;5.70;;;2.72;;
25609;SDS011;13479;49.044;8.716;2023-07-09T16:29:16;4.57;;;2.83;;
25609;SDS011;13479;49.044;8.716;2023-07-09T16:31:44;6.35;;;3.00;;
25609;SDS011;13479;49.044;8.716;2023-07-09T16:34:09;6.15;;;2.75;;
25609;SDS011;13479;49.044;8.716;2023-07-09T16:36:34;6.82;;;2.67;;
25609;SDS011;13479;49.044;8.716;2023-07-09T16:39:00;5.82;;;3.15;;
25609;SDS011;13479;49.044;8.716;2023-07-09T16:41:25;5.68;;;2.70;;
25609;SDS011;13479;49.044;8.716;2023-07-09T16:43:50;7.40;;;2.88;;
25609;SDS011;13479;49.044;8.716;2023-07-09T16:46:23;6.47;;;3.03;;
25609;SDS011;13479;49.044;8.716;2023-07-09T16:48:49;5.78;;;2.92;;
25609;SDS011;13479;49.044;8.716;2023-07-09T16:51:15;6.57;;;3.30;;
25609;SDS011;13479;49.044;8.716;2023-07-09T16:53:40;6.05;;;2.92;;
25609;SDS011;13479;49.044;8.716;2023-07-09T16:56:08;6.55;;;3.17;;
25609;SDS011;13479;49.044;8.716;2023-07-09T16:58:36;8.73;;;3.00;;
25609;SDS011;13479;49.044;8.716;2023-07-09T17:01:02;4.90;;;3.00;;
25609;SDS011;13479;49.044;8.716;2023-07-09T17:03:28;6.50;;;3.05;;
25609;SDS011;13479;49.044;8.716;2023-07-09T17:05:54;5.25;;;2.75;;
25609;SDS011;13479;49.044;8.716;2023-07-09T17:08:19;6.28;;;3.30;;
25609;SDS011;13479;49.044;8.716;2023-07-09T17:10:45;8.07;;;3.17;;
25609;SDS011;13479;49.044;8.716;2023-07-09T17:13:20;5.88;;;3.00;;
25609;SDS011;13479;49.044;8.716;2023-07-09T17:15:48;9.55;;;3.45;;
25609;SDS011;13479;49.044;8.716;2023-07-09T17:18:17;8.52;;;3.10;;
25609;SDS011;13479;49.044;8.716;2023-07-09T17:20:46;7.78;;;3.45;;
25609;SDS011;13479;49.044;8.716;2023-07-09T17:23:13;6.28;;;3.10;;
25609;SDS011;13479;49.044;8.716;2023-07-09T17:25:38;5.95;;;3.10;;
25609;SDS011;13479;49.044;8.716;2023-07-09T17:30:43;5.45;;;3.03;;
25609;SDS011;13479;49.044;8.716;2023-07-09T17:33:09;7.07;;;3.10;;
25609;SDS011;13479;49.044;8.716;2023-07-09T17:35:38;6.72;;;3.30;;
25609;SDS011;13479;49.044;8.716;2023-07-09T17:38:04;8.80;;;3.60;;
25609;SDS011;13479;49.044;8.716;2023-07-09T17:40:32;17.17;;;3.90;;
25609;SDS011;13479;49.044;8.716;2023-07-09T17:42:59;19.88;;;3.90;;
25609;SDS011;13479;49.044;8.716;2023-07-09T17:45:25;20.02;;;4.10;;
25609;SDS011;13479;49.044;8.716;2023-07-09T17:47:52;13.27;;;4.15;;
25609;SDS011;13479;49.044;8.716;2023-07-09T17:50:19;8.88;;;3.63;;
25609;SDS011;13479;49.044;8.716;2023-07-09T17:52:45;6.38;;;3.53;;
25609;SDS011;13479;49.044;8.716;2023-07-09T17:55:12;9.35;;;3.20;;
25609;SDS011;13479;49.044;8.716;2023-07-09T17:57:39;8.52;;;3.50;;
25609;SDS011;13479;49.044;8.716;2023-07-09T18:00:06;8.02;;;3.22;;
25609;SDS011;13479;49.044;8.716;2023-07-09T18:02:40;11.02;;;3.67;;
25609;SDS011;13479;49.044;8.716;2023-07-09T18:05:18;9.30;;;3.40;;
25609;SDS011;13479;49.044;8.716;2023-07-09T18:07:46;10.57;;;3.47;;
25609;SDS011;13479;49.044;8.716;2023-07-09T18:10:11;9.80;;;3.58;;
25609;SDS011;13479;49.044;8.716;2023-07-09T18:12:37;7.18;;;3.17;;
25609;SDS011;13479;49.044;8.716;2023-07-09T18:15:02;10.23;;;3.45;;
25609;SDS011;13479;49.044;8.716;2023-07-09T18:17:30;9.23;;;3.30;;
25609;SDS011;13479;49.044;8.716;2023-07-09T18:19:57;13.20;;;3.85;;
25609;SDS011;13479;49.044;8.716;2023-07-09T18:22:23;7.65;;;3.30;;
25609;SDS011;13479;49.044;8.716;2023-07-09T18:24:49;11.70;;;3.70;;
25609;SDS011;13479;49.044;8.716;2023-07-09T18:27:16;9.70;;;3.47;;
25609;SDS011;13479;49.044;8.716;2023-07-09T18:29:45;10.02;;;3.58;;
25609;SDS011;13479;49.044;8.716;2023-07-09T18:32:16;9.13;;;3.22;;
25609;SDS011;13479;49.044;8.716;2023-07-09T18:34:44;7.60;;;3.45;;
25609;SDS011;13479;49.044;8.716;2023-07-09T18:37:10;6.78;;;3.83;;
25609;SDS011;13479;49.044;8.716;2023-07-09T18:39:36;12.82;;;4.20;;
25609;SDS011;13479;49.044;8.716;2023-07-09T18:42:01;7.35;;;3.63;;
25609;SDS011;13479;49.044;8.716;2023-07-09T18:44:26;15.25;;;3.38;;
25609;SDS011;13479;49.044;8.716;2023-07-09T18:46:52;17.90;;;4.40;;
25609;SDS011;13479;49.044;8.716;2023-07-09T18:49:18;7.18;;;3.83;;
25609;SDS011;13479;49.044;8.716;2023-07-09T18:51:43;9.35;;;4.05;;
25609;SDS011;13479;49.044;8.716;2023-07-09T18:56:42;12.57;;;3.88;;
25609;SDS011;13479;49.044;8.716;2023-07-09T18:59:10;18.23;;;3.97;;
25609;SDS011;13479;49.044;8.716;2023-07-09T19:01:46;7.10;;;3.42;;
25609;SDS011;13479;49.044;8.716;2023-07-09T19:04:19;10.07;;;3.40;;
25609;SDS011;13479;49.044;8.716;2023-07-09T19:06:48;7.07;;;3.78;;
25609;SDS011;13479;49.044;8.716;2023-07-09T19:09:14;8.80;;;3.70;;
25609;SDS011;13479;49.044;8.716;2023-07-09T19:11:41;7.53;;;3.60;;
25609;SDS011;13479;49.044;8.716;2023-07-09T19:14:07;7.50;;;3.55;;
25609;SDS011;13479;49.044;8.716;2023-07-09T19:16:32;6.07;;;3.60;;
25609;SDS011;13479;49.044;8.716;2023-07-09T19:18:58;7.40;;;3.70;;
25609;SDS011;13479;49.044;8.716;2023-07-09T19:21:26;9.77;;;3.50;;
25609;SDS011;13479;49.044;8.716;2023-07-09T19:23:54;10.80;;;3.50;;
25609;SDS011;13479;49.044;8.716;2023-07-09T19:26:19;6.97;;;3.30;;
25609;SDS011;13479;49.044;8.716;2023-07-09T19:28:45;6.60;;;3.47;;